sensor_id;sensor_type;location;lat;lon;timestamp;P1;durP1;ratioP1;P2;durP2;ratioP2
66886;SDS011;67239;51.680;5.976;2024-01-25T00:01:50;32.38;;;6.53;;
66886;SDS011;67239;51.680;5.976;2024-01-25T00:04:18;31.35;;;5.72;;
66886;SDS011;67239;51.680;5.976;2024-01-25T00:06:46;34.28;;;6.25;;
66886;SDS011;67239;51.680;5.976;2024-01-25T00:09:13;36.72;;;5.70;;
66886;SDS011;67239;51.680;5.976;2024-01-25T00:11:40;31.83;;;5.32;;
66886;SDS011;67239;51.680;5.976;2024-01-25T00:14:07;28.35;;;6.00;;
66886;SDS011;67239;51.680;5.976;2024-01-25T00:16:34;32.92;;;5.70;;
66886;SDS011;67239;51.680;5.976;2024-01-25T00:19:01;30.83;;;5.35;;
66886;SDS011;67239;51.680;5.976;2024-01-25T00:21:29;33.80;;;5.32;;
66886;SDS011;67239;51.680;5.976;2024-01-25T00:23:56;35.88;;;5.75;;
66886;SDS011;67239;51.680;5.976;2024-01-25T00:26:23;30.63;;;5.32;;
66886;SDS011;67239;51.680;5.976;2024-01-25T00:28:50;39.38;;;5.60;;
66886;SDS011;67239;51.680;5.976;2024-01-25T00:31:17;32.15;;;5.57;;
66886;SDS011;67239;51.680;5.976;2024-01-25T00:33:45;31.67;;;6.25;;
66886;SDS011;67239;51.680;5.976;2024-01-25T00:36:12;30.95;;;6.20;;
66886;SDS011;67239;51.680;5.976;2024-01-25T00:38:40;34.00;;;6.47;;
66886;SDS011;67239;51.680;5.976;2024-01-25T00:41:08;31.98;;;6.03;;
66886;SDS011;67239;51.680;5.976;2024-01-25T00:43:37;31.90;;;6.10;;
66886;SDS011;67239;51.680;5.976;2024-01-25T00:46:04;35.50;;;5.35;;
66886;SDS011;67239;51.680;5.976;2024-01-25T00:48:32;35.35;;;4.95;;
66886;SDS011;67239;51.680;5.976;2024-01-25T00:51:00;29.27;;;5.55;;
66886;SDS011;67239;51.680;5.976;2024-01-25T00:53:27;29.92;;;6.18;;
66886;SDS011;67239;51.680;5.976;2024-01-25T00:55:55;25.83;;;5.32;;
66886;SDS011;67239;51.680;5.976;2024-01-25T00:58:22;36.75;;;5.72;;
66886;SDS011;67239;51.680;5.976;2024-01-25T01:00:50;31.55;;;5.78;;
66886;SDS011;67239;51.680;5.976;2024-01-25T01:03:18;28.48;;;5.35;;
66886;SDS011;67239;51.680;5.976;2024-01-25T01:05:46;24.33;;;5.32;;
66886;SDS011;67239;51.680;5.976;2024-01-25T01:08:14;27.65;;;5.72;;
66886;SDS011;67239;51.680;5.976;2024-01-25T01:10:41;35.70;;;5.63;;
66886;SDS011;67239;51.680;5.976;2024-01-25T01:13:08;34.25;;;6.18;;
66886;SDS011;67239;51.680;5.976;2024-01-25T01:15:35;28.38;;;6.05;;
66886;SDS011;67239;51.680;5.976;2024-01-25T01:18:03;30.92;;;5.78;;
66886;SDS011;67239;51.680;5.976;2024-01-25T01:20:32;30.30;;;5.53;;
66886;SDS011;67239;51.680;5.976;2024-01-25T01:22:59;28.85;;;5.40;;
66886;SDS011;67239;51.680;5.976;2024-01-25T01:25:26;27.65;;;5.07;;
66886;SDS011;67239;51.680;5.976;2024-01-25T01:27:53;32.60;;;5.60;;
66886;SDS011;67239;51.680;5.976;2024-01-25T01:30:20;33.28;;;6.30;;
66886;SDS011;67239;51.680;5.976;2024-01-25T01:32:48;34.40;;;5.38;;
66886;SDS011;67239;51.680;5.976;2024-01-25T01:35:15;29.65;;;5.95;;
66886;SDS011;67239;51.680;5.976;2024-01-25T01:37:42;37.45;;;5.22;;
66886;SDS011;67239;51.680;5.976;2024-01-25T01:40:10;33.35;;;5.43;;
66886;SDS011;67239;51.680;5.976;2024-01-25T01:42:37;24.85;;;5.43;;
66886;SDS011;67239;51.680;5.976;2024-01-25T01:45:04;22.27;;;4.93;;
66886;SDS011;67239;51.680;5.976;2024-01-25T01:47:32;27.30;;;6.07;;
66886;SDS011;67239;51.680;5.976;2024-01-25T01:50:03;29.05;;;5.47;;
66886;SDS011;67239;51.680;5.976;2024-01-25T01:52:32;28.23;;;5.32;;
66886;SDS011;67239;51.680;5.976;2024-01-25T01:54:59;34.35;;;5.55;;
66886;SDS011;67239;51.680;5.976;2024-01-25T01:57:27;26.73;;;4.85;;
66886;SDS011;67239;51.680;5.976;2024-01-25T01:59:54;29.90;;;5.60;;
66886;SDS011;67239;51.680;5.976;2024-01-25T02:02:24;28.88;;;4.97;;
66886;SDS011;67239;51.680;5.976;2024-01-25T02:04:52;37.53;;;5.20;;
66886;SDS011;67239;51.680;5.976;2024-01-25T02:07:19;29.65;;;5.38;;
66886;SDS011;67239;51.680;5.976;2024-01-25T02:09:47;29.20;;;5.05;;
66886;SDS011;67239;51.680;5.976;2024-01-25T02:12:17;32.08;;;4.82;;
66886;SDS011;67239;51.680;5.976;2024-01-25T02:14:44;28.48;;;5.40;;
66886;SDS011;67239;51.680;5.976;2024-01-25T02:17:12;38.20;;;5.72;;
66886;SDS011;67239;51.680;5.976;2024-01-25T02:19:39;30.95;;;5.15;;
66886;SDS011;67239;51.680;5.976;2024-01-25T02:22:06;28.38;;;6.05;;
66886;SDS011;67239;51.680;5.976;2024-01-25T02:24:34;32.42;;;5.30;;
66886;SDS011;67239;51.680;5.976;2024-01-25T02:27:01;30.80;;;4.88;;
66886;SDS011;67239;51.680;5.976;2024-01-25T02:29:30;38.08;;;5.70;;
66886;SDS011;67239;51.680;5.976;2024-01-25T02:31:57;38.45;;;6.97;;
66886;SDS011;67239;51.680;5.976;2024-01-25T02:34:24;36.95;;;5.57;;
66886;SDS011;67239;51.680;5.976;2024-01-25T02:36:52;30.75;;;5.72;;
66886;SDS011;67239;51.680;5.976;2024-01-25T02:39:19;45.75;;;5.90;;
66886;SDS011;67239;51.680;5.976;2024-01-25T02:41:46;27.98;;;4.88;;
66886;SDS011;67239;51.680;5.976;2024-01-25T02:44:13;31.70;;;5.72;;
66886;SDS011;67239;51.680;5.976;2024-01-25T02:46:40;25.23;;;5.22;;
66886;SDS011;67239;51.680;5.976;2024-01-25T02:49:08;36.33;;;5.38;;
66886;SDS011;67239;51.680;5.976;2024-01-25T02:51:35;31.92;;;6.05;;
66886;SDS011;67239;51.680;5.976;2024-01-25T02:54:02;36.17;;;6.05;;
66886;SDS011;67239;51.680;5.976;2024-01-25T02:56:30;34.50;;;5.63;;
66886;SDS011;67239;51.680;5.976;2024-01-25T02:59:01;35.92;;;6.35;;
66886;SDS011;67239;51.680;5.976;2024-01-25T03:01:36;40.75;;;5.25;;
66886;SDS011;67239;51.680;5.976;2024-01-25T03:04:05;32.28;;;6.15;;
66886;SDS011;67239;51.680;5.976;2024-01-25T03:06:32;30.80;;;5.85;;
66886;SDS011;67239;51.680;5.976;2024-01-25T03:09:00;30.13;;;6.40;;
66886;SDS011;67239;51.680;5.976;2024-01-25T03:11:27;28.73;;;5.15;;
66886;SDS011;67239;51.680;5.976;2024-01-25T03:13:54;30.00;;;5.70;;
66886;SDS011;67239;51.680;5.976;2024-01-25T03:16:21;31.50;;;4.63;;
66886;SDS011;67239;51.680;5.976;2024-01-25T03:18:48;41.03;;;5.90;;
66886;SDS011;67239;51.680;5.976;2024-01-25T03:21:16;28.85;;;5.22;;
66886;SDS011;67239;51.680;5.976;2024-01-25T03:23:43;31.67;;;5.68;;
66886;SDS011;67239;51.680;5.976;2024-01-25T03:26:10;30.85;;;6.40;;
66886;SDS011;67239;51.680;5.976;2024-01-25T03:28:37;28.17;;;5.75;;
66886;SDS011;67239;51.680;5.976;2024-01-25T03:31:06;31.20;;;5.50;;
66886;SDS011;67239;51.680;5.976;2024-01-25T03:33:33;37.53;;;6.00;;
66886;SDS011;67239;51.680;5.976;2024-01-25T03:36:04;32.78;;;4.97;;
66886;SDS011;67239;51.680;5.976;2024-01-25T03:38:32;29.98;;;5.78;;
66886;SDS011;67239;51.680;5.976;2024-01-25T03:40:59;35.35;;;5.80;;
66886;SDS011;67239;51.680;5.976;2024-01-25T03:43:27;23.70;;;4.82;;
66886;SDS011;67239;51.680;5.976;2024-01-25T03:46:08;29.67;;;5.00;;
66886;SDS011;67239;51.680;5.976;2024-01-25T03:48:35;37.38;;;6.38;;
66886;SDS011;67239;51.680;5.976;2024-01-25T03:51:02;37.75;;;5.35;;
66886;SDS011;67239;51.680;5.976;2024-01-25T03:53:30;41.10;;;5.82;;
66886;SDS011;67239;51.680;5.976;2024-01-25T03:55:57;30.48;;;6.18;;
66886;SDS011;67239;51.680;5.976;2024-01-25T03:58:24;37.00;;;6.32;;
66886;SDS011;67239;51.680;5.976;2024-01-25T04:00:51;28.80;;;5.05;;
66886;SDS011;67239;51.680;5.976;2024-01-25T04:03:19;32.17;;;6.03;;
66886;SDS011;67239;51.680;5.976;2024-01-25T04:05:46;34.20;;;6.28;;
66886;SDS011;67239;51.680;5.976;2024-01-25T04:08:13;40.53;;;6.07;;
66886;SDS011;67239;51.680;5.976;2024-01-25T04:10:40;32.65;;;5.78;;
66886;SDS011;67239;51.680;5.976;2024-01-25T04:13:07;35.55;;;5.75;;
66886;SDS011;67239;51.680;5.976;2024-01-25T04:15:34;46.45;;;6.63;;
66886;SDS011;67239;51.680;5.976;2024-01-25T04:18:02;36.03;;;6.15;;
66886;SDS011;67239;51.680;5.976;2024-01-25T04:20:30;43.50;;;6.80;;
66886;SDS011;67239;51.680;5.976;2024-01-25T04:22:58;37.42;;;6.90;;
66886;SDS011;67239;51.680;5.976;2024-01-25T04:25:25;34.08;;;5.70;;
66886;SDS011;67239;51.680;5.976;2024-01-25T04:27:55;30.83;;;6.15;;
66886;SDS011;67239;51.680;5.976;2024-01-25T04:30:23;36.03;;;5.80;;
66886;SDS011;67239;51.680;5.976;2024-01-25T04:32:50;38.90;;;5.82;;
66886;SDS011;67239;51.680;5.976;2024-01-25T04:35:17;40.08;;;5.60;;
66886;SDS011;67239;51.680;5.976;2024-01-25T04:37:45;39.10;;;6.28;;
66886;SDS011;67239;51.680;5.976;2024-01-25T04:40:12;34.75;;;5.53;;
66886;SDS011;67239;51.680;5.976;2024-01-25T04:42:39;41.65;;;7.03;;
66886;SDS011;67239;51.680;5.976;2024-01-25T04:45:06;32.60;;;6.10;;
66886;SDS011;67239;51.680;5.976;2024-01-25T04:47:34;44.30;;;6.50;;
66886;SDS011;67239;51.680;5.976;2024-01-25T04:50:01;26.25;;;5.78;;
66886;SDS011;67239;51.680;5.976;2024-01-25T04:52:29;39.08;;;6.43;;
66886;SDS011;67239;51.680;5.976;2024-01-25T04:54:56;41.35;;;6.38;;
66886;SDS011;67239;51.680;5.976;2024-01-25T04:57:23;34.70;;;6.38;;
66886;SDS011;67239;51.680;5.976;2024-01-25T04:59:50;35.85;;;5.63;;
66886;SDS011;67239;51.680;5.976;2024-01-25T05:02:17;36.08;;;6.25;;
66886;SDS011;67239;51.680;5.976;2024-01-25T05:04:45;40.88;;;6.30;;
66886;SDS011;67239;51.680;5.976;2024-01-25T05:07:12;38.78;;;7.20;;
66886;SDS011;67239;51.680;5.976;2024-01-25T05:09:39;36.13;;;6.68;;
66886;SDS011;67239;51.680;5.976;2024-01-25T05:12:07;31.45;;;5.97;;
66886;SDS011;67239;51.680;5.976;2024-01-25T05:14:34;26.98;;;5.88;;
66886;SDS011;67239;51.680;5.976;2024-01-25T05:17:01;39.33;;;6.00;;
66886;SDS011;67239;51.680;5.976;2024-01-25T05:19:28;39.80;;;6.53;;
66886;SDS011;67239;51.680;5.976;2024-01-25T05:21:55;32.67;;;5.93;;
66886;SDS011;67239;51.680;5.976;2024-01-25T05:24:22;31.75;;;5.75;;
66886;SDS011;67239;51.680;5.976;2024-01-25T05:26:49;32.85;;;6.57;;
66886;SDS011;67239;51.680;5.976;2024-01-25T05:29:17;39.00;;;7.32;;
66886;SDS011;67239;51.680;5.976;2024-01-25T05:31:44;35.50;;;6.55;;
66886;SDS011;67239;51.680;5.976;2024-01-25T05:34:11;35.90;;;6.63;;
66886;SDS011;67239;51.680;5.976;2024-01-25T05:36:39;29.50;;;5.90;;
66886;SDS011;67239;51.680;5.976;2024-01-25T05:39:06;29.85;;;5.97;;
66886;SDS011;67239;51.680;5.976;2024-01-25T05:41:33;38.05;;;6.30;;
66886;SDS011;67239;51.680;5.976;2024-01-25T05:44:00;36.90;;;5.70;;
66886;SDS011;67239;51.680;5.976;2024-01-25T05:46:28;45.75;;;7.82;;
66886;SDS011;67239;51.680;5.976;2024-01-25T05:48:55;38.35;;;6.75;;
66886;SDS011;67239;51.680;5.976;2024-01-25T05:51:22;47.22;;;7.18;;
66886;SDS011;67239;51.680;5.976;2024-01-25T05:53:49;43.03;;;6.28;;
66886;SDS011;67239;51.680;5.976;2024-01-25T05:56:17;43.60;;;6.90;;
66886;SDS011;67239;51.680;5.976;2024-01-25T05:58:44;39.85;;;6.85;;
66886;SDS011;67239;51.680;5.976;2024-01-25T06:01:11;47.15;;;7.85;;
66886;SDS011;67239;51.680;5.976;2024-01-25T06:03:38;34.28;;;6.22;;
66886;SDS011;67239;51.680;5.976;2024-01-25T06:06:08;40.58;;;5.70;;
66886;SDS011;67239;51.680;5.976;2024-01-25T06:08:35;31.10;;;5.75;;
66886;SDS011;67239;51.680;5.976;2024-01-25T06:11:03;39.22;;;5.72;;
66886;SDS011;67239;51.680;5.976;2024-01-25T06:13:31;30.60;;;5.80;;
66886;SDS011;67239;51.680;5.976;2024-01-25T06:15:59;38.72;;;5.82;;
66886;SDS011;67239;51.680;5.976;2024-01-25T06:18:29;36.45;;;6.80;;
66886;SDS011;67239;51.680;5.976;2024-01-25T06:20:56;33.33;;;5.97;;
66886;SDS011;67239;51.680;5.976;2024-01-25T06:23:23;35.20;;;6.75;;
66886;SDS011;67239;51.680;5.976;2024-01-25T06:25:50;40.15;;;7.53;;
66886;SDS011;67239;51.680;5.976;2024-01-25T06:28:17;42.78;;;7.07;;
66886;SDS011;67239;51.680;5.976;2024-01-25T06:30:46;39.40;;;7.40;;
66886;SDS011;67239;51.680;5.976;2024-01-25T06:33:13;41.33;;;6.75;;
66886;SDS011;67239;51.680;5.976;2024-01-25T06:35:40;37.92;;;6.75;;
66886;SDS011;67239;51.680;5.976;2024-01-25T06:38:08;35.45;;;7.03;;
66886;SDS011;67239;51.680;5.976;2024-01-25T06:40:35;33.45;;;5.97;;
66886;SDS011;67239;51.680;5.976;2024-01-25T06:43:03;37.22;;;7.03;;
66886;SDS011;67239;51.680;5.976;2024-01-25T06:45:30;45.90;;;6.63;;
66886;SDS011;67239;51.680;5.976;2024-01-25T06:47:58;42.25;;;6.55;;
66886;SDS011;67239;51.680;5.976;2024-01-25T06:50:25;39.22;;;7.20;;
66886;SDS011;67239;51.680;5.976;2024-01-25T06:52:53;49.70;;;12.60;;
66886;SDS011;67239;51.680;5.976;2024-01-25T06:55:21;38.53;;;7.15;;
66886;SDS011;67239;51.680;5.976;2024-01-25T06:57:48;119.22;;;37.63;;
66886;SDS011;67239;51.680;5.976;2024-01-25T07:00:16;67.05;;;14.73;;
66886;SDS011;67239;51.680;5.976;2024-01-25T07:02:44;45.60;;;9.63;;
66886;SDS011;67239;51.680;5.976;2024-01-25T07:05:12;38.72;;;7.88;;
66886;SDS011;67239;51.680;5.976;2024-01-25T07:07:40;58.58;;;17.23;;
66886;SDS011;67239;51.680;5.976;2024-01-25T07:10:07;53.40;;;11.68;;
66886;SDS011;67239;51.680;5.976;2024-01-25T07:12:34;39.25;;;9.15;;
66886;SDS011;67239;51.680;5.976;2024-01-25T07:15:02;46.10;;;9.98;;
66886;SDS011;67239;51.680;5.976;2024-01-25T07:17:30;32.20;;;7.80;;
66886;SDS011;67239;51.680;5.976;2024-01-25T07:19:57;37.83;;;9.27;;
66886;SDS011;67239;51.680;5.976;2024-01-25T07:22:25;39.22;;;6.80;;
66886;SDS011;67239;51.680;5.976;2024-01-25T07:24:52;39.03;;;7.53;;
66886;SDS011;67239;51.680;5.976;2024-01-25T07:27:19;49.30;;;13.40;;
66886;SDS011;67239;51.680;5.976;2024-01-25T07:29:46;52.53;;;15.10;;
66886;SDS011;67239;51.680;5.976;2024-01-25T07:32:13;41.65;;;10.27;;
66886;SDS011;67239;51.680;5.976;2024-01-25T07:34:40;32.85;;;9.10;;
66886;SDS011;67239;51.680;5.976;2024-01-25T07:37:08;39.65;;;8.60;;
66886;SDS011;67239;51.680;5.976;2024-01-25T07:39:35;33.90;;;7.50;;
66886;SDS011;67239;51.680;5.976;2024-01-25T07:42:02;39.92;;;8.00;;
66886;SDS011;67239;51.680;5.976;2024-01-25T07:44:29;53.33;;;12.77;;
66886;SDS011;67239;51.680;5.976;2024-01-25T07:46:57;46.30;;;15.30;;
66886;SDS011;67239;51.680;5.976;2024-01-25T07:49:24;52.08;;;11.40;;
66886;SDS011;67239;51.680;5.976;2024-01-25T07:51:51;47.38;;;9.60;;
66886;SDS011;67239;51.680;5.976;2024-01-25T07:54:18;39.53;;;8.10;;
66886;SDS011;67239;51.680;5.976;2024-01-25T07:56:45;32.35;;;7.57;;
66886;SDS011;67239;51.680;5.976;2024-01-25T07:59:12;32.45;;;6.80;;
66886;SDS011;67239;51.680;5.976;2024-01-25T08:01:40;28.63;;;7.43;;
66886;SDS011;67239;51.680;5.976;2024-01-25T08:04:07;38.88;;;7.63;;
66886;SDS011;67239;51.680;5.976;2024-01-25T08:06:34;41.65;;;8.20;;
66886;SDS011;67239;51.680;5.976;2024-01-25T08:09:01;44.75;;;8.38;;
66886;SDS011;67239;51.680;5.976;2024-01-25T08:11:29;38.90;;;8.27;;
66886;SDS011;67239;51.680;5.976;2024-01-25T08:13:56;31.98;;;7.75;;
66886;SDS011;67239;51.680;5.976;2024-01-25T08:16:24;40.40;;;7.88;;
66886;SDS011;67239;51.680;5.976;2024-01-25T08:18:51;39.40;;;8.32;;
66886;SDS011;67239;51.680;5.976;2024-01-25T08:21:19;31.30;;;8.10;;
66886;SDS011;67239;51.680;5.976;2024-01-25T08:23:46;37.33;;;6.93;;
66886;SDS011;67239;51.680;5.976;2024-01-25T08:26:14;33.83;;;8.68;;
66886;SDS011;67239;51.680;5.976;2024-01-25T08:28:41;38.28;;;7.65;;
66886;SDS011;67239;51.680;5.976;2024-01-25T08:31:12;41.33;;;8.85;;
66886;SDS011;67239;51.680;5.976;2024-01-25T08:33:39;34.17;;;8.63;;
66886;SDS011;67239;51.680;5.976;2024-01-25T08:36:16;44.45;;;9.10;;
66886;SDS011;67239;51.680;5.976;2024-01-25T08:38:45;32.53;;;8.07;;
66886;SDS011;67239;51.680;5.976;2024-01-25T08:41:15;35.58;;;7.82;;
66886;SDS011;67239;51.680;5.976;2024-01-25T08:43:43;37.00;;;8.45;;
66886;SDS011;67239;51.680;5.976;2024-01-25T08:46:12;40.22;;;7.50;;
66886;SDS011;67239;51.680;5.976;2024-01-25T08:48:41;40.00;;;8.35;;
66886;SDS011;67239;51.680;5.976;2024-01-25T08:51:09;36.20;;;8.15;;
66886;SDS011;67239;51.680;5.976;2024-01-25T08:53:36;35.83;;;8.00;;
66886;SDS011;67239;51.680;5.976;2024-01-25T08:56:03;40.10;;;8.35;;
66886;SDS011;67239;51.680;5.976;2024-01-25T08:58:32;52.33;;;15.27;;
66886;SDS011;67239;51.680;5.976;2024-01-25T09:00:59;71.45;;;36.10;;
66886;SDS011;67239;51.680;5.976;2024-01-25T09:03:27;48.08;;;14.25;;
66886;SDS011;67239;51.680;5.976;2024-01-25T09:05:54;68.72;;;23.75;;
66886;SDS011;67239;51.680;5.976;2024-01-25T09:08:21;49.33;;;18.60;;
66886;SDS011;67239;51.680;5.976;2024-01-25T09:10:49;43.28;;;12.75;;
66886;SDS011;67239;51.680;5.976;2024-01-25T09:13:16;41.92;;;11.65;;
66886;SDS011;67239;51.680;5.976;2024-01-25T09:15:43;40.45;;;9.70;;
66886;SDS011;67239;51.680;5.976;2024-01-25T09:18:12;43.83;;;13.27;;
66886;SDS011;67239;51.680;5.976;2024-01-25T09:20:39;36.13;;;8.52;;
66886;SDS011;67239;51.680;5.976;2024-01-25T09:23:07;50.53;;;10.52;;
66886;SDS011;67239;51.680;5.976;2024-01-25T09:25:34;38.58;;;12.02;;
66886;SDS011;67239;51.680;5.976;2024-01-25T09:28:02;40.53;;;8.65;;
66886;SDS011;67239;51.680;5.976;2024-01-25T09:30:31;40.50;;;9.68;;
66886;SDS011;67239;51.680;5.976;2024-01-25T09:32:58;37.42;;;9.45;;
66886;SDS011;67239;51.680;5.976;2024-01-25T09:35:26;40.85;;;10.48;;
66886;SDS011;67239;51.680;5.976;2024-01-25T09:37:53;42.13;;;12.05;;
66886;SDS011;67239;51.680;5.976;2024-01-25T09:40:21;32.53;;;10.27;;
66886;SDS011;67239;51.680;5.976;2024-01-25T09:42:48;34.97;;;9.02;;
66886;SDS011;67239;51.680;5.976;2024-01-25T09:45:19;37.92;;;9.70;;
66886;SDS011;67239;51.680;5.976;2024-01-25T09:47:46;39.40;;;9.73;;
66886;SDS011;67239;51.680;5.976;2024-01-25T09:50:15;40.08;;;8.70;;
66886;SDS011;67239;51.680;5.976;2024-01-25T09:52:43;42.28;;;9.32;;
66886;SDS011;67239;51.680;5.976;2024-01-25T09:55:14;46.75;;;17.90;;
66886;SDS011;67239;51.680;5.976;2024-01-25T09:57:46;49.50;;;12.65;;
66886;SDS011;67239;51.680;5.976;2024-01-25T10:02:47;40.60;;;11.23;;
66886;SDS011;67239;51.680;5.976;2024-01-25T10:05:16;43.22;;;9.38;;
66886;SDS011;67239;51.680;5.976;2024-01-25T10:07:45;41.83;;;11.07;;
66886;SDS011;67239;51.680;5.976;2024-01-25T10:10:13;45.40;;;17.95;;
66886;SDS011;67239;51.680;5.976;2024-01-25T10:12:41;51.92;;;16.63;;
66886;SDS011;67239;51.680;5.976;2024-01-25T10:15:10;39.88;;;11.00;;
66886;SDS011;67239;51.680;5.976;2024-01-25T10:17:38;36.70;;;8.73;;
66886;SDS011;67239;51.680;5.976;2024-01-25T10:20:26;41.20;;;13.50;;
66886;SDS011;67239;51.680;5.976;2024-01-25T10:22:57;34.42;;;8.50;;
66886;SDS011;67239;51.680;5.976;2024-01-25T10:25:27;36.55;;;9.30;;
66886;SDS011;67239;51.680;5.976;2024-01-25T10:27:54;41.90;;;11.23;;
66886;SDS011;67239;51.680;5.976;2024-01-25T10:30:22;44.40;;;10.93;;
66886;SDS011;67239;51.680;5.976;2024-01-25T10:32:51;57.70;;;13.50;;
66886;SDS011;67239;51.680;5.976;2024-01-25T10:35:20;35.63;;;13.63;;
66886;SDS011;67239;51.680;5.976;2024-01-25T10:37:51;38.63;;;13.75;;
66886;SDS011;67239;51.680;5.976;2024-01-25T10:40:20;38.33;;;10.68;;
66886;SDS011;67239;51.680;5.976;2024-01-25T10:42:49;42.55;;;10.15;;
66886;SDS011;67239;51.680;5.976;2024-01-25T10:45:18;32.30;;;11.93;;
66886;SDS011;67239;51.680;5.976;2024-01-25T10:47:48;102.15;;;48.35;;
66886;SDS011;67239;51.680;5.976;2024-01-25T10:50:16;49.03;;;17.88;;
66886;SDS011;67239;51.680;5.976;2024-01-25T10:52:43;59.75;;;26.55;;
66886;SDS011;67239;51.680;5.976;2024-01-25T10:55:12;49.53;;;19.98;;
66886;SDS011;67239;51.680;5.976;2024-01-25T10:57:42;31.88;;;13.32;;
66886;SDS011;67239;51.680;5.976;2024-01-25T11:00:13;38.10;;;13.18;;
66886;SDS011;67239;51.680;5.976;2024-01-25T11:02:44;32.70;;;11.52;;
66886;SDS011;67239;51.680;5.976;2024-01-25T11:05:16;39.30;;;11.40;;
66886;SDS011;67239;51.680;5.976;2024-01-25T11:07:48;33.42;;;10.52;;
66886;SDS011;67239;51.680;5.976;2024-01-25T11:10:18;33.15;;;11.05;;
66886;SDS011;67239;51.680;5.976;2024-01-25T11:13:00;34.65;;;11.52;;
66886;SDS011;67239;51.680;5.976;2024-01-25T11:15:31;42.42;;;11.35;;
66886;SDS011;67239;51.680;5.976;2024-01-25T11:18:02;37.33;;;11.57;;
66886;SDS011;67239;51.680;5.976;2024-01-25T11:20:35;39.25;;;12.98;;
66886;SDS011;67239;51.680;5.976;2024-01-25T11:23:05;38.45;;;13.35;;
66886;SDS011;67239;51.680;5.976;2024-01-25T11:25:37;31.60;;;12.60;;
66886;SDS011;67239;51.680;5.976;2024-01-25T11:28:05;36.13;;;11.85;;
66886;SDS011;67239;51.680;5.976;2024-01-25T11:30:34;32.13;;;12.65;;
66886;SDS011;67239;51.680;5.976;2024-01-25T11:33:06;39.42;;;13.85;;
66886;SDS011;67239;51.680;5.976;2024-01-25T11:35:34;36.55;;;15.07;;
66886;SDS011;67239;51.680;5.976;2024-01-25T11:38:02;41.85;;;12.07;;
66886;SDS011;67239;51.680;5.976;2024-01-25T11:40:30;31.95;;;12.80;;
66886;SDS011;67239;51.680;5.976;2024-01-25T11:43:04;32.10;;;12.20;;
66886;SDS011;67239;51.680;5.976;2024-01-25T11:45:38;41.10;;;12.98;;
66886;SDS011;67239;51.680;5.976;2024-01-25T11:48:10;49.77;;;12.43;;
66886;SDS011;67239;51.680;5.976;2024-01-25T11:50:38;39.25;;;12.32;;
66886;SDS011;67239;51.680;5.976;2024-01-25T11:53:05;37.63;;;12.40;;
66886;SDS011;67239;51.680;5.976;2024-01-25T11:55:33;32.70;;;13.02;;
66886;SDS011;67239;51.680;5.976;2024-01-25T11:58:00;35.72;;;13.85;;
66886;SDS011;67239;51.680;5.976;2024-01-25T12:00:28;51.60;;;22.38;;
66886;SDS011;67239;51.680;5.976;2024-01-25T12:02:55;47.95;;;18.98;;
66886;SDS011;67239;51.680;5.976;2024-01-25T12:05:23;40.80;;;16.50;;
66886;SDS011;67239;51.680;5.976;2024-01-25T12:07:50;52.15;;;18.73;;
66886;SDS011;67239;51.680;5.976;2024-01-25T12:10:18;47.22;;;19.58;;
66886;SDS011;67239;51.680;5.976;2024-01-25T12:12:45;95.97;;;25.45;;
66886;SDS011;67239;51.680;5.976;2024-01-25T12:15:14;49.33;;;19.65;;
66886;SDS011;67239;51.680;5.976;2024-01-25T12:17:41;52.88;;;21.30;;
66886;SDS011;67239;51.680;5.976;2024-01-25T12:20:09;78.00;;;30.45;;
66886;SDS011;67239;51.680;5.976;2024-01-25T12:22:39;46.97;;;21.67;;
66886;SDS011;67239;51.680;5.976;2024-01-25T12:25:07;85.90;;;40.88;;
66886;SDS011;67239;51.680;5.976;2024-01-25T12:27:40;103.85;;;29.23;;
66886;SDS011;67239;51.680;5.976;2024-01-25T12:30:08;54.75;;;20.33;;
66886;SDS011;67239;51.680;5.976;2024-01-25T12:32:36;51.38;;;28.17;;
66886;SDS011;67239;51.680;5.976;2024-01-25T12:35:04;44.22;;;18.92;;
66886;SDS011;67239;51.680;5.976;2024-01-25T12:37:32;40.65;;;17.17;;
66886;SDS011;67239;51.680;5.976;2024-01-25T12:40:00;48.28;;;17.45;;
66886;SDS011;67239;51.680;5.976;2024-01-25T12:42:28;43.97;;;18.23;;
66886;SDS011;67239;51.680;5.976;2024-01-25T12:44:55;49.15;;;19.02;;
66886;SDS011;67239;51.680;5.976;2024-01-25T12:47:22;53.28;;;20.42;;
66886;SDS011;67239;51.680;5.976;2024-01-25T12:49:50;58.60;;;20.38;;
66886;SDS011;67239;51.680;5.976;2024-01-25T12:52:23;53.92;;;20.13;;
66886;SDS011;67239;51.680;5.976;2024-01-25T12:54:50;55.45;;;19.30;;
66886;SDS011;67239;51.680;5.976;2024-01-25T12:57:17;53.13;;;20.48;;
66886;SDS011;67239;51.680;5.976;2024-01-25T12:59:45;54.92;;;19.88;;
66886;SDS011;67239;51.680;5.976;2024-01-25T13:02:14;56.90;;;19.83;;
66886;SDS011;67239;51.680;5.976;2024-01-25T13:04:41;63.33;;;24.98;;
66886;SDS011;67239;51.680;5.976;2024-01-25T13:07:08;57.70;;;20.88;;
66886;SDS011;67239;51.680;5.976;2024-01-25T13:09:35;58.13;;;21.42;;
66886;SDS011;67239;51.680;5.976;2024-01-25T13:12:06;60.60;;;29.40;;
66886;SDS011;67239;51.680;5.976;2024-01-25T13:14:34;49.60;;;20.58;;
66886;SDS011;67239;51.680;5.976;2024-01-25T13:17:01;50.83;;;21.73;;
66886;SDS011;67239;51.680;5.976;2024-01-25T13:19:28;49.45;;;21.45;;
66886;SDS011;67239;51.680;5.976;2024-01-25T13:21:55;55.20;;;23.27;;
66886;SDS011;67239;51.680;5.976;2024-01-25T13:24:22;54.78;;;21.30;;
66886;SDS011;67239;51.680;5.976;2024-01-25T13:26:50;59.08;;;22.17;;
66886;SDS011;67239;51.680;5.976;2024-01-25T13:29:17;57.40;;;19.88;;
66886;SDS011;67239;51.680;5.976;2024-01-25T13:31:44;56.55;;;27.30;;
66886;SDS011;67239;51.680;5.976;2024-01-25T13:34:11;58.97;;;23.17;;
66886;SDS011;67239;51.680;5.976;2024-01-25T13:36:38;75.97;;;27.38;;
66886;SDS011;67239;51.680;5.976;2024-01-25T13:39:06;62.80;;;27.20;;
66886;SDS011;67239;51.680;5.976;2024-01-25T13:41:35;58.92;;;22.60;;
66886;SDS011;67239;51.680;5.976;2024-01-25T13:44:02;49.03;;;22.45;;
66886;SDS011;67239;51.680;5.976;2024-01-25T13:46:30;58.55;;;30.70;;
66886;SDS011;67239;51.680;5.976;2024-01-25T13:48:57;53.13;;;22.75;;
66886;SDS011;67239;51.680;5.976;2024-01-25T13:51:24;47.15;;;20.23;;
66886;SDS011;67239;51.680;5.976;2024-01-25T13:53:51;43.95;;;18.00;;
66886;SDS011;67239;51.680;5.976;2024-01-25T13:56:19;46.10;;;17.75;;
66886;SDS011;67239;51.680;5.976;2024-01-25T13:58:46;41.47;;;15.55;;
66886;SDS011;67239;51.680;5.976;2024-01-25T14:01:13;43.45;;;15.13;;
66886;SDS011;67239;51.680;5.976;2024-01-25T14:03:40;46.75;;;15.02;;
66886;SDS011;67239;51.680;5.976;2024-01-25T14:06:11;45.50;;;15.32;;
66886;SDS011;67239;51.680;5.976;2024-01-25T14:08:41;53.03;;;15.23;;
66886;SDS011;67239;51.680;5.976;2024-01-25T14:11:09;40.53;;;15.88;;
66886;SDS011;67239;51.680;5.976;2024-01-25T14:13:39;56.10;;;20.08;;
66886;SDS011;67239;51.680;5.976;2024-01-25T14:16:06;180.90;;;66.20;;
66886;SDS011;67239;51.680;5.976;2024-01-25T14:18:36;45.60;;;18.70;;
66886;SDS011;67239;51.680;5.976;2024-01-25T14:23:37;48.55;;;21.95;;
66886;SDS011;67239;51.680;5.976;2024-01-25T14:26:06;55.65;;;21.95;;
66886;SDS011;67239;51.680;5.976;2024-01-25T14:28:33;49.08;;;17.30;;
66886;SDS011;67239;51.680;5.976;2024-01-25T14:31:00;46.95;;;16.05;;
66886;SDS011;67239;51.680;5.976;2024-01-25T14:33:28;51.70;;;24.38;;
66886;SDS011;67239;51.680;5.976;2024-01-25T14:35:55;53.53;;;16.85;;
66886;SDS011;67239;51.680;5.976;2024-01-25T14:38:22;46.72;;;18.98;;